Time;durP1;ratioP1;P1;durP2;ratioP2;P2;SDS_P1;SDS_P2;PMS_P1;PMS_P2;Temp;Humidity;BMP_temperature;BMP_pressure;BME280_temperature;BME280_humidity;BME280_pressure;Samples;Min_cycle;Max_cycle;Signal;HPM_P1;HPM_P2
2023/06/25 00:01:00;;;;;;;;;;;;;;;23.34;63.47;100533.75;5404137;32;34238;-80
2023/06/25 00:04:02;;;;;;;;;;;;;;;23.29;64.52;100532.47;5407381;32;35439;-79
2023/06/25 00:07:05;;;;;;;;;;;;;;;22.98;65.81;100533.34;5388706;32;34198;-70
2023/06/25 00:10:07;;;;;;;;;;;;;;;23.00;65.29;100533.25;5407309;32;34954;-77
2023/06/25 00:13:09;;;;;;;;;;;;;;;22.95;66.43;100536.31;5404101;32;34178;-78
2023/06/25 00:16:11;;;;;;;;;;;;;;;22.70;67.22;100531.41;5395016;32;33400;-72
2023/06/25 00:19:18;;;;;;;;;;;;;;;22.36;69.13;100525.44;5404717;32;34156;-71
2023/06/25 00:22:20;;;;;;;;;;;;;;;22.66;68.36;100529.97;5401978;32;34196;-77
2023/06/25 00:25:26;;;;;;;;;;;;;;;22.71;67.65;100535.78;5407909;32;34275;-71
2023/06/25 00:28:28;;;;;;;;;;;;;;;22.52;68.38;100541.87;5399226;32;34769;-71
2023/06/25 00:31:30;;;;;;;;;;;;;;;22.86;67.70;100550.56;5404056;32;34195;-79
2023/06/25 00:34:41;;;;;;;;;;;;;;;22.80;67.97;100547.50;5403708;32;34568;-72
2023/06/25 00:37:44;;;;;;;;;;;;;;;22.70;68.28;100544.78;5404965;32;34073;-72
2023/06/25 00:40:46;;;;;;;;;;;;;;;23.74;63.96;100541.72;5406815;32;34519;-73
2023/06/25 00:43:48;;;;;;;;;;;;;;;22.77;67.19;100550.47;5399913;32;35024;-79
2023/06/25 00:46:50;;;;;;;;;;;;;;;23.26;65.61;100549.69;5395620;32;34835;-71
2023/06/25 00:49:52;;;;;;;;;;;;;;;22.34;69.64;100546.13;5402748;32;34359;-77
2023/06/25 00:52:56;;;;;;;;;;;;;;;22.82;67.50;100562.47;5407555;32;36020;-72
2023/06/25 00:55:58;;;;;;;;;;;;;;;22.60;68.62;100558.13;5389443;32;34343;-71
2023/06/25 00:59:01;;;;;;;;;;;;;;;22.87;67.08;100552.25;5402996;32;36427;-78
2023/06/25 01:02:22;;;;;;;;;;;;;;;22.84;67.54;100565.00;5393296;32;34132;-71
2023/06/25 01:05:39;;;;;;;;;;;;;;;23.05;66.07;100564.97;5402936;32;34308;-77
2023/06/25 01:08:50;;;;;;;;;;;;;;;22.70;68.24;100560.88;5407391;32;34634;-72
2023/06/25 01:12:02;;;;;;;;;;;;;;;22.65;68.17;100561.25;5404126;32;35568;-71
2023/06/25 01:15:05;;;;;;;;;;;;;;;22.69;68.17;100557.34;5389059;32;34172;-71
2023/06/25 01:18:07;;;;;;;;;;;;;;;23.18;65.88;100546.81;5398785;32;34143;-77
2023/06/25 01:21:09;;;;;;;;;;;;;;;22.73;67.55;100535.63;5372440;32;35417;-71
2023/06/25 01:24:11;;;;;;;;;;;;;;;22.63;67.51;100541.81;5393081;32;34155;-77
2023/06/25 01:27:13;;;;;;;;;;;;;;;22.45;68.24;100530.00;5404682;32;34344;-76
2023/06/25 01:30:16;;;;;;;;;;;;;;;23.56;63.07;100524.59;5405438;32;35459;-78
2023/06/25 01:33:21;;;;;;;;;;;;;;;22.97;65.57;100529.00;5389773;32;34182;-71
2023/06/25 01:36:23;;;;;;;;;;;;;;;22.49;67.65;100528.78;5389847;32;34292;-78
2023/06/25 01:39:25;;;;;;;;;;;;;;;22.73;66.84;100527.59;5406239;32;35540;-72
2023/06/25 01:42:27;;;;;;;;;;;;;;;22.63;67.92;100530.25;5401618;32;34199;-79
2023/06/25 01:45:29;;;;;;;;;;;;;;;23.33;64.76;100521.34;5404757;32;34324;-71
2023/06/25 01:48:31;;;;;;;;;;;;;;;23.09;65.65;100526.22;5402036;32;34399;-71
2023/06/25 01:51:33;;;;;;;;;;;;;;;22.47;67.81;100532.53;5404889;32;35353;-71
2023/06/25 01:54:35;;;;;;;;;;;;;;;23.17;64.74;100519.16;5402951;32;35590;-77
2023/06/25 01:57:37;;;;;;;;;;;;;;;22.64;67.43;100527.41;5403315;32;34348;-72
2023/06/25 02:00:40;;;;;;;;;;;;;;;22.82;67.17;100521.44;5404059;32;34738;-71
2023/06/25 02:03:42;;;;;;;;;;;;;;;23.35;64.08;100513.12;5399862;32;35522;-71
2023/06/25 02:06:45;;;;;;;;;;;;;;;22.46;67.97;100518.31;5404306;32;33036;-77
2023/06/25 02:09:47;;;;;;;;;;;;;;;22.83;66.50;100521.28;5401979;32;34142;-71
2023/06/25 02:12:49;;;;;;;;;;;;;;;23.58;63.29;100511.91;5404669;32;35572;-71
2023/06/25 02:15:51;;;;;;;;;;;;;;;23.90;61.73;100517.00;5407292;32;36311;-78
2023/06/25 02:18:53;;;;;;;;;;;;;;;22.78;66.38;100525.37;5402277;32;34326;-78
2023/06/25 02:21:55;;;;;;;;;;;;;;;22.70;67.11;100521.53;5407877;32;34479;-71
2023/06/25 02:24:57;;;;;;;;;;;;;;;22.77;66.61;100515.63;5402479;32;35952;-72
2023/06/25 02:27:59;;;;;;;;;;;;;;;23.44;63.61;100514.97;5406419;32;35510;-78
2023/06/25 02:31:01;;;;;;;;;;;;;;;22.64;66.92;100515.84;5400036;32;34221;-78
2023/06/25 02:34:03;;;;;;;;;;;;;;;22.27;68.39;100534.25;5402365;32;35589;-77
2023/06/25 02:37:13;;;;;;;;;;;;;;;22.75;66.39;100531.00;5402593;32;36183;-71
2023/06/25 02:40:15;;;;;;;;;;;;;;;22.64;67.07;100523.91;5401570;32;34381;-71
2023/06/25 02:43:17;;;;;;;;;;;;;;;21.99;70.67;100527.72;5389033;32;35330;-78
2023/06/25 02:46:18;;;;;;;;;;;;;;;22.06;71.58;100527.06;5401330;32;34332;-80
2023/06/25 02:49:21;;;;;;;;;;;;;;;21.66;74.06;100531.41;5405838;32;34373;-71
2023/06/25 02:52:22;;;;;;;;;;;;;;;22.68;69.87;100528.00;5395261;32;35663;-77
2023/06/25 02:55:24;;;;;;;;;;;;;;;22.79;68.99;100530.56;5402695;32;35512;-78
2023/06/25 02:58:26;;;;;;;;;;;;;;;22.75;68.39;100522.97;5405283;32;34398;-72
2023/06/25 03:01:28;;;;;;;;;;;;;;;22.31;70.54;100533.03;5401014;32;34689;-71
2023/06/25 03:04:30;;;;;;;;;;;;;;;22.40;69.43;100534.91;5404277;32;35510;-78
2023/06/25 03:07:32;;;;;;;;;;;;;;;22.20;70.38;100538.44;5376157;32;34203;-71
2023/06/25 03:10:37;;;;;;;;;;;;;;;22.07;72.11;100542.13;5406389;32;35402;-79
2023/06/25 03:13:39;;;;;;;;;;;;;;;22.35;71.38;100538.00;5386801;32;37357;-80
2023/06/25 03:16:42;;;;;;;;;;;;;;;22.08;71.38;100541.16;5404519;32;35398;-77
2023/06/25 03:19:44;;;;;;;;;;;;;;;21.99;72.24;100544.63;5391318;32;34909;-77
2023/06/25 03:22:46;;;;;;;;;;;;;;;22.05;71.30;100543.25;5401061;32;34395;-71
2023/06/25 03:25:48;;;;;;;;;;;;;;;21.95;72.08;100539.63;5397553;32;35907;-72
2023/06/25 03:28:51;;;;;;;;;;;;;;;22.56;69.96;100542.47;5404422;32;35450;-77
2023/06/25 03:31:53;;;;;;;;;;;;;;;22.63;68.65;100541.81;5408260;32;34320;-72
2023/06/25 03:34:55;;;;;;;;;;;;;;;22.90;67.33;100537.72;5403498;32;34251;-79
2023/06/25 03:37:57;;;;;;;;;;;;;;;22.36;69.54;100545.03;5405098;32;34307;-73
2023/06/25 03:40:59;;;;;;;;;;;;;;;22.17;69.98;100534.22;5407540;32;34471;-78
2023/06/25 03:44:01;;;;;;;;;;;;;;;22.38;69.42;100540.41;5401388;32;34880;-80
2023/06/25 03:47:03;;;;;;;;;;;;;;;22.12;69.83;100544.47;5404296;32;35666;-77
2023/06/25 03:50:05;;;;;;;;;;;;;;;22.43;68.87;100550.72;5404107;32;34177;-78
2023/06/25 03:53:08;;;;;;;;;;;;;;;21.71;71.67;100547.91;5409064;32;34156;-78
2023/06/25 03:56:10;;;;;;;;;;;;;;;22.06;70.67;100550.28;5391532;32;33908;-78
2023/06/25 03:59:12;;;;;;;;;;;;;;;22.13;70.01;100549.66;5402650;32;34374;-72
2023/06/25 04:02:14;;;;;;;;;;;;;;;22.60;67.92;100544.72;5408218;32;34346;-78
2023/06/25 04:05:16;;;;;;;;;;;;;;;22.74;65.89;100553.44;5388991;32;34606;-79
2023/06/25 04:08:18;;;;;;;;;;;;;;;23.01;64.89;100551.03;5407907;32;34304;-72
2023/06/25 04:11:20;;;;;;;;;;;;;;;22.70;65.56;100551.00;5403167;32;35587;-79
2023/06/25 04:14:22;;;;;;;;;;;;;;;22.43;66.08;100546.22;5406153;32;35427;-72
2023/06/25 04:17:24;;;;;;;;;;;;;;;22.60;65.29;100547.41;5408399;32;35953;-79
2023/06/25 04:20:27;;;;;;;;;;;;;;;22.61;65.16;100550.97;5403813;32;34548;-72
2023/06/25 04:23:29;;;;;;;;;;;;;;;23.21;62.13;100541.19;5405399;32;33304;-80
2023/06/25 04:26:31;;;;;;;;;;;;;;;23.06;62.54;100553.31;5389779;32;34438;-78
2023/06/25 04:29:33;;;;;;;;;;;;;;;23.18;61.85;100549.50;5408033;32;34572;-79
2023/06/25 04:32:35;;;;;;;;;;;;;;;23.19;61.23;100549.37;5404580;32;35406;-72
2023/06/25 04:35:37;;;;;;;;;;;;;;;22.48;63.94;100547.62;5407075;32;35766;-72
2023/06/25 04:38:40;;;;;;;;;;;;;;;22.48;64.42;100543.16;5403948;32;33637;-72
2023/06/25 04:41:42;;;;;;;;;;;;;;;22.08;65.00;100538.47;5402065;32;34194;-71
2023/06/25 04:44:44;;;;;;;;;;;;;;;22.51;63.39;100540.19;5400789;32;34352;-71
2023/06/25 04:47:46;;;;;;;;;;;;;;;22.10;63.98;100541.91;5403188;32;34457;-78
2023/06/25 04:50:48;;;;;;;;;;;;;;;22.57;62.33;100547.69;5393701;32;34232;-71
2023/06/25 04:53:50;;;;;;;;;;;;;;;22.60;61.76;100533.16;5403664;32;35520;-79
2023/06/25 04:56:52;;;;;;;;;;;;;;;22.29;61.98;100543.88;5407247;32;34676;-77
2023/06/25 04:59:54;;;;;;;;;;;;;;;21.98;63.29;100545.59;5404820;32;34878;-71
2023/06/25 05:02:56;;;;;;;;;;;;;;;22.60;61.12;100544.72;5403097;32;34119;-80
2023/06/25 05:05:59;;;;;;;;;;;;;;;22.29;61.48;100543.88;5381563;32;34059;-78
2023/06/25 05:09:00;;;;;;;;;;;;;;;22.67;61.29;100545.91;5399862;32;36413;-78
2023/06/25 05:12:03;;;;;;;;;;;;;;;22.64;60.90;100542.66;5402950;32;34099;-71
2023/06/25 05:15:05;;;;;;;;;;;;;;;22.08;63.07;100545.66;5403903;32;34224;-79
2023/06/25 05:18:08;;;;;;;;;;;;;;;22.76;60.39;100552.28;5404785;32;34319;-71
2023/06/25 05:21:10;;;;;;;;;;;;;;;22.68;61.42;100547.62;5405177;32;34295;-78
2023/06/25 05:24:12;;;;;;;;;;;;;;;22.46;61.39;100555.78;5400482;32;35517;-71
2023/06/25 05:27:14;;;;;;;;;;;;;;;22.21;62.46;100558.87;5404633;32;34261;-72
2023/06/25 05:30:16;;;;;;;;;;;;;;;22.87;60.15;100556.75;5389009;32;35178;-71
2023/06/25 05:33:18;;;;;;;;;;;;;;;22.83;60.41;100552.59;5407359;32;34291;-71
2023/06/25 05:36:21;;;;;;;;;;;;;;;22.75;60.95;100557.78;5404428;32;34288;-79
2023/06/25 05:39:28;;;;;;;;;;;;;;;22.59;60.11;100560.94;5406324;32;34713;-79
2023/06/25 05:42:31;;;;;;;;;;;;;;;22.96;58.88;100561.28;5404011;32;34096;-79
2023/06/25 05:45:33;;;;;;;;;;;;;;;22.39;60.13;100568.03;5392898;32;34718;-78
2023/06/25 05:48:36;;;;;;;;;;;;;;;22.41;59.79;100569.59;5403484;32;34362;-72
2023/06/25 05:51:38;;;;;;;;;;;;;;;21.74;61.54;100575.25;5402772;32;34299;-80
2023/06/25 05:54:40;;;;;;;;;;;;;;;21.90;60.91;100574.84;5402442;32;35550;-80
2023/06/25 05:57:42;;;;;;;;;;;;;;;22.56;59.34;100571.94;5402744;32;34275;-82
2023/06/25 06:00:44;;;;;;;;;;;;;;;22.67;58.61;100566.50;5397230;32;34628;-78
2023/06/25 06:03:46;;;;;;;;;;;;;;;23.38;56.23;100562.00;5404895;32;35389;-72
2023/06/25 06:06:48;;;;;;;;;;;;;;;23.34;56.62;100557.88;5402842;32;34411;-72
2023/06/25 06:09:50;;;;;;;;;;;;;;;23.55;56.29;100563.13;5380070;32;34232;-72
2023/06/25 06:12:52;;;;;;;;;;;;;;;23.41;56.74;100571.59;5397303;32;35863;-78
2023/06/25 06:15:54;;;;;;;;;;;;;;;22.73;58.35;100568.63;5410047;32;34407;-72
2023/06/25 06:18:56;;;;;;;;;;;;;;;23.37;55.93;100568.31;5402772;32;34412;-72
2023/06/25 06:21:57;;;;;;;;;;;;;;;22.66;58.29;100578.19;5390712;32;34287;-79
2023/06/25 06:25:00;;;;;;;;;;;;;;;22.12;59.95;100576.56;5390512;32;35513;-72
2023/06/25 06:28:02;;;;;;;;;;;;;;;22.52;59.10;100578.53;5403156;32;34999;-79
2023/06/25 06:31:04;;;;;;;;;;;;;;;22.97;57.33;100571.03;5400590;32;34623;-73
2023/06/25 06:34:06;;;;;;;;;;;;;;;22.82;58.17;100583.06;5399488;32;35667;-79
2023/06/25 06:37:08;;;;;;;;;;;;;;;23.36;56.20;100576.50;5406773;32;35050;-79
2023/06/25 06:40:10;;;;;;;;;;;;;;;23.79;54.55;100576.19;5399221;32;34364;-79
2023/06/25 06:43:12;;;;;;;;;;;;;;;22.90;57.33;100581.44;5399875;32;34323;-73
2023/06/25 06:46:14;;;;;;;;;;;;;;;22.89;57.42;100590.47;5400353;32;34838;-79
2023/06/25 06:49:17;;;;;;;;;;;;;;;23.57;55.47;100579.09;5401886;32;34842;-80
2023/06/25 06:52:23;;;;;;;;;;;;;;;24.09;52.90;100575.22;5389405;32;34338;-72
2023/06/25 06:55:25;;;;;;;;;;;;;;;23.56;54.30;100564.81;5398041;32;35346;-72
2023/06/25 06:58:27;;;;;;;;;;;;;;;24.15;52.60;100566.59;5391538;32;34903;-72
2023/06/25 07:01:29;;;;;;;;;;;;;;;23.19;55.50;100578.88;5403368;32;34552;-80
2023/06/25 07:04:31;;;;;;;;;;;;;;;23.21;55.95;100573.38;5403624;32;34959;-72
2023/06/25 07:07:33;;;;;;;;;;;;;;;22.63;57.36;100571.28;5406822;32;35693;-72
2023/06/25 07:10:35;;;;;;;;;;;;;;;24.03;53.71;100565.03;5404359;32;35528;-72
2023/06/25 07:13:37;;;;;;;;;;;;;;;23.73;54.58;100568.69;5408451;32;34306;-79
2023/06/25 07:16:41;;;;;;;;;;;;;;;24.07;53.09;100563.75;5408169;32;35175;-73
2023/06/25 07:19:43;;;;;;;;;;;;;;;24.35;52.60;100556.69;5401561;32;34429;-79
2023/06/25 07:22:45;;;;;;;;;;;;;;;23.61;53.83;100567.97;5403928;32;34854;-79
2023/06/25 07:25:47;;;;;;;;;;;;;;;24.79;50.31;100554.28;5403569;32;35281;-72
2023/06/25 07:28:49;;;;;;;;;;;;;;;25.59;48.51;100560.81;5408666;32;35258;-73
2023/06/25 07:31:51;;;;;;;;;;;;;;;25.55;48.85;100554.88;5401301;32;34812;-72
2023/06/25 07:34:53;;;;;;;;;;;;;;;26.76;46.00;100566.00;5408046;32;35126;-72
2023/06/25 07:37:55;;;;;;;;;;;;;;;26.79;45.74;100558.41;5384613;32;35206;-79
2023/06/25 07:40:57;;;;;;;;;;;;;;;27.52;43.61;100549.78;5403789;32;34801;-80
2023/06/25 07:43:59;;;;;;;;;;;;;;;27.79;43.19;100548.69;5401653;32;34780;-72
2023/06/25 07:47:06;;;;;;;;;;;;;;;26.08;47.03;100555.91;5387879;32;34324;-71
2023/06/25 07:50:08;;;;;;;;;;;;;;;25.09;49.78;100562.09;5390089;32;34170;-78
2023/06/25 07:53:10;;;;;;;;;;;;;;;25.57;48.57;100560.13;5395870;32;34294;-71
2023/06/25 07:56:12;;;;;;;;;;;;;;;25.20;49.56;100562.91;5408244;32;35108;-71
2023/06/25 07:59:14;;;;;;;;;;;;;;;25.53;48.47;100554.19;5400927;32;35919;-79
2023/06/25 08:02:16;;;;;;;;;;;;;;;25.75;48.20;100554.75;5404961;32;34652;-72
2023/06/25 08:05:19;;;;;;;;;;;;;;;25.01;50.23;100555.75;5377835;32;35028;-73
2023/06/25 08:08:21;;;;;;;;;;;;;;;25.38;48.89;100545.81;5399075;32;35768;-71
2023/06/25 08:11:23;;;;;;;;;;;;;;;26.51;46.47;100559.63;5392764;32;34382;-71
2023/06/25 08:14:25;;;;;;;;;;;;;;;25.29;49.29;100568.22;5395110;32;34074;-77
2023/06/25 08:17:30;;;;;;;;;;;;;;;24.83;51.01;100564.59;5404984;32;35479;-71
2023/06/25 08:20:32;;;;;;;;;;;;;;;25.57;48.44;100552.06;5401017;32;34874;-72
2023/06/25 08:23:33;;;;;;;;;;;;;;;24.93;50.37;100559.19;5406808;32;35491;-79
2023/06/25 08:26:35;;;;;;;;;;;;;;;25.24;49.26;100557.06;5404443;32;35560;-72
2023/06/25 08:29:38;;;;;;;;;;;;;;;25.38;48.77;100561.94;5403923;32;34459;-78
2023/06/25 08:32:39;;;;;;;;;;;;;;;24.03;52.40;100560.50;5389069;32;34868;-80
2023/06/25 08:35:42;;;;;;;;;;;;;;;24.37;51.92;100554.69;5402456;32;35123;-80
2023/06/25 08:38:44;;;;;;;;;;;;;;;24.95;49.38;100550.97;5403140;32;34442;-79
2023/06/25 08:41:46;;;;;;;;;;;;;;;26.05;47.59;100548.13;5401629;32;34812;-72
2023/06/25 08:44:47;;;;;;;;;;;;;;;26.67;45.58;100557.03;5403630;32;35620;-71
2023/06/25 08:47:56;;;;;;;;;;;;;;;26.78;44.38;100540.56;5383875;32;34864;-78
2023/06/25 08:51:01;;;;;;;;;;;;;;;24.95;48.19;100551.81;5365998;32;34732;-72
2023/06/25 08:54:03;;;;;;;;;;;;;;;25.52;47.73;100546.28;5391911;32;35121;-73
2023/06/25 08:57:06;;;;;;;;;;;;;;;25.55;47.20;100543.28;5387215;32;34767;-71
2023/06/25 09:00:08;;;;;;;;;;;;;;;25.82;46.52;100542.37;5388371;32;35191;-77
2023/06/25 09:03:10;;;;;;;;;;;;;;;26.35;45.25;100538.78;5402047;32;35087;-71
2023/06/25 09:06:15;;;;;;;;;;;;;;;28.35;40.48;100522.69;5390389;32;34760;-72
2023/06/25 09:09:17;;;;;;;;;;;;;;;28.00;41.50;100529.25;5404933;32;35002;-72
2023/06/25 09:12:23;;;;;;;;;;;;;;;29.19;38.15;100523.09;5402970;32;35055;-78
2023/06/25 09:15:25;;;;;;;;;;;;;;;29.66;37.46;100517.56;5393390;32;34320;-71
2023/06/25 09:18:29;;;;;;;;;;;;;;;28.23;39.70;100524.87;5400328;32;34281;-71
2023/06/25 09:21:37;;;;;;;;;;;;;;;28.28;40.34;100511.69;5407216;32;35361;-79
2023/06/25 09:24:43;;;;;;;;;;;;;;;28.92;38.91;100517.12;5395892;32;34747;-73
2023/06/25 09:27:46;;;;;;;;;;;;;;;30.11;35.70;100505.03;5402387;32;35058;-80
2023/06/25 09:30:48;;;;;;;;;;;;;;;29.14;37.54;100510.09;5406145;32;34510;-73
2023/06/25 09:33:51;;;;;;;;;;;;;;;28.79;38.23;100508.72;5402007;32;34573;-73
2023/06/25 09:36:53;;;;;;;;;;;;;;;30.40;34.95;100506.91;5397522;32;35351;-73
2023/06/25 09:39:55;;;;;;;;;;;;;;;28.16;38.70;100506.81;5389700;32;37254;-79
2023/06/25 09:42:58;;;;;;;;;;;;;;;28.45;37.90;100499.00;5403745;32;35037;-73
2023/06/25 09:46:00;;;;;;;;;;;;;;;27.77;39.61;100497.53;5400465;32;34619;-71
2023/06/25 09:49:02;;;;;;;;;;;;;;;29.39;36.86;100492.69;5403107;32;34832;-72
2023/06/25 09:52:11;;;;;;;;;;;;;;;27.63;41.04;100491.91;5400292;32;34471;-71
2023/06/25 09:55:12;;;;;;;;;;;;;;;28.24;38.67;100494.13;5400362;32;35335;-71
2023/06/25 09:58:14;;;;;;;;;;;;;;;28.43;38.81;100484.81;5392572;32;35224;-80
2023/06/25 10:01:17;;;;;;;;;;;;;;;27.95;39.17;100483.88;5402010;32;35366;-72
2023/06/25 10:04:19;;;;;;;;;;;;;;;28.34;38.50;100483.16;5406241;32;34677;-72
2023/06/25 10:07:23;;;;;;;;;;;;;;;28.24;39.72;100477.91;5389012;32;34578;-73
2023/06/25 10:10:32;;;;;;;;;;;;;;;28.11;38.92;100471.34;5402222;32;34815;-71
2023/06/25 10:13:38;;;;;;;;;;;;;;;28.85;38.15;100468.28;5404955;32;35021;-71
2023/06/25 10:16:40;;;;;;;;;;;;;;;28.45;38.08;100471.13;5391535;32;34939;-80
2023/06/25 10:19:52;;;;;;;;;;;;;;;28.74;38.25;100475.94;5404421;32;34098;-79
2023/06/25 10:23:01;;;;;;;;;;;;;;;28.75;38.15;100477.63;5402358;32;34810;-72
2023/06/25 10:26:03;;;;;;;;;;;;;;;29.41;36.68;100473.53;5406997;32;34403;-72
2023/06/25 10:29:06;;;;;;;;;;;;;;;29.53;36.51;100476.72;5406104;32;34342;-80
2023/06/25 10:32:10;;;;;;;;;;;;;;;29.23;37.35;100472.97;5400024;32;36947;-72
2023/06/25 10:35:16;;;;;;;;;;;;;;;30.51;34.96;100468.50;5393955;32;34215;-79
2023/06/25 10:38:18;;;;;;;;;;;;;;;29.21;36.38;100469.62;5390446;32;35941;-80
2023/06/25 10:41:30;;;;;;;;;;;;;;;28.76;37.48;100471.19;5406918;32;34235;-81
2023/06/25 10:44:32;;;;;;;;;;;;;;;28.81;37.38;100468.81;5400568;32;34850;-81
2023/06/25 10:47:35;;;;;;;;;;;;;;;29.67;35.77;100463.22;5403426;32;35589;-78
2023/06/25 10:50:37;;;;;;;;;;;;;;;30.45;34.35;100472.78;5408856;32;34507;-78
2023/06/25 10:53:41;;;;;;;;;;;;;;;30.02;35.54;100462.75;5389712;32;35698;-79
2023/06/25 10:56:43;;;;;;;;;;;;;;;28.81;38.08;100468.81;5407999;32;34865;-78
2023/06/25 10:59:48;;;;;;;;;;;;;;;29.09;37.37;100463.78;5405227;32;35648;-79
2023/06/25 11:02:51;;;;;;;;;;;;;;;29.40;36.95;100458.31;5404863;32;35061;-80
2023/06/25 11:05:56;;;;;;;;;;;;;;;30.50;34.92;100466.81;5399889;32;35126;-72
2023/06/25 11:08:58;;;;;;;;;;;;;;;30.96;33.89;100455.75;5389889;32;35734;-72
2023/06/25 11:12:00;;;;;;;;;;;;;;;30.65;33.76;100450.53;5393088;32;35031;-79
2023/06/25 11:15:02;;;;;;;;;;;;;;;32.90;30.91;100443.53;5396528;32;35362;-72
2023/06/25 11:18:04;;;;;;;;;;;;;;;31.29;32.46;100439.84;5404475;32;34619;-73
2023/06/25 11:21:08;;;;;;;;;;;;;;;31.81;31.88;100436.78;5403851;32;34973;-81
2023/06/25 11:24:10;;;;;;;;;;;;;;;31.61;31.66;100424.06;5404922;32;34829;-80
2023/06/25 11:27:12;;;;;;;;;;;;;;;32.03;30.79;100428.59;5403570;32;35490;-74
2023/06/25 11:30:14;;;;;;;;;;;;;;;31.31;31.81;100428.81;5377926;32;34226;-79
2023/06/25 11:33:16;;;;;;;;;;;;;;;31.47;31.33;100431.25;5393722;32;35387;-73
2023/06/25 11:36:18;;;;;;;;;;;;;;;31.45;31.78;100422.47;5391018;32;35600;-72
2023/06/25 11:39:20;;;;;;;;;;;;;;;31.93;30.39;100426.22;5407298;32;35421;-72
2023/06/25 11:42:23;;;;;;;;;;;;;;;32.06;29.43;100425.47;5393297;32;34974;-72
2023/06/25 11:45:25;;;;;;;;;;;;;;;31.86;29.38;100413.63;5400972;32;35486;-77
2023/06/25 11:48:28;;;;;;;;;;;;;;;31.85;29.35;100422.81;5393955;32;35703;-79
2023/06/25 11:51:30;;;;;;;;;;;;;;;31.01;30.07;100409.87;5403588;32;34469;-78
2023/06/25 11:54:32;;;;;;;;;;;;;;;29.75;32.50;100416.25;5408787;32;34404;-72
2023/06/25 11:57:34;;;;;;;;;;;;;;;31.52;29.96;100407.06;5404275;32;34779;-80
2023/06/25 12:00:36;;;;;;;;;;;;;;;29.91;31.08;100407.97;5400050;32;34679;-72
2023/06/25 12:03:38;;;;;;;;;;;;;;;30.78;29.60;100395.63;5402817;32;36017;-71
2023/06/25 12:06:41;;;;;;;;;;;;;;;31.11;28.67;100396.84;5390310;32;35051;-79
2023/06/25 12:09:43;;;;;;;;;;;;;;;31.09;28.53;100395.34;5407148;32;34657;-74
2023/06/25 12:12:45;;;;;;;;;;;;;;;29.80;30.04;100411.13;5403092;32;35475;-73
2023/06/25 12:15:47;;;;;;;;;;;;;;;29.24;31.25;100407.88;5408764;32;35716;-71
2023/06/25 12:18:49;;;;;;;;;;;;;;;31.04;29.44;100397.78;5404183;32;35044;-79
2023/06/25 12:21:51;;;;;;;;;;;;;;;29.81;30.27;100406.53;5408743;32;34829;-79
2023/06/25 12:24:53;;;;;;;;;;;;;;;29.89;30.42;100409.19;5403801;32;34348;-79
2023/06/25 12:27:55;;;;;;;;;;;;;;;28.97;31.78;100405.66;5389725;32;35079;-79
2023/06/25 12:30:57;;;;;;;;;;;;;;;29.27;31.38;100404.78;5407866;32;34671;-81
2023/06/25 12:33:59;;;;;;;;;;;;;;;28.94;32.22;100403.34;5403045;32;35029;-74
2023/06/25 12:37:02;;;;;;;;;;;;;;;29.43;31.70;100403.81;5383572;32;35365;-73
2023/06/25 12:40:05;;;;;;;;;;;;;;;30.13;30.38;100399.97;5403706;32;35891;-73
2023/06/25 12:43:07;;;;;;;;;;;;;;;30.57;29.63;100397.22;5378776;32;34909;-73
2023/06/25 12:46:09;;;;;;;;;;;;;;;29.87;30.76;100398.53;5402436;32;35280;-82
2023/06/25 12:49:11;;;;;;;;;;;;;;;28.65;31.84;100399.37;5403131;32;35447;-72
2023/06/25 12:52:13;;;;;;;;;;;;;;;28.61;32.01;100389.97;5407059;32;34906;-80
2023/06/25 12:55:15;;;;;;;;;;;;;;;29.86;30.54;100396.84;5397973;32;34339;-72
2023/06/25 12:58:17;;;;;;;;;;;;;;;29.09;32.42;100390.72;5407438;32;34851;-73
2023/06/25 13:01:19;;;;;;;;;;;;;;;28.71;32.97;100382.47;5403317;32;34487;-79
2023/06/25 13:04:22;;;;;;;;;;;;;;;28.62;32.85;100377.28;5407245;32;35089;-77
2023/06/25 13:07:24;;;;;;;;;;;;;;;28.80;33.39;100376.00;5387935;32;34914;-79
2023/06/25 13:10:26;;;;;;;;;;;;;;;28.57;33.97;100383.22;5404594;32;35602;-72
2023/06/25 13:13:28;;;;;;;;;;;;;;;28.29;34.25;100380.94;5403067;32;34552;-72
2023/06/25 13:16:30;;;;;;;;;;;;;;;28.04;34.95;100382.87;5407061;32;35147;-74
2023/06/25 13:19:32;;;;;;;;;;;;;;;28.27;34.55;100372.19;5404047;32;34102;-72
2023/06/25 13:22:34;;;;;;;;;;;;;;;29.02;34.09;100359.97;5403422;32;35008;-80
2023/06/25 13:25:37;;;;;;;;;;;;;;;28.55;34.33;100367.19;5407310;32;35038;-73
2023/06/25 13:28:40;;;;;;;;;;;;;;;29.18;33.18;100369.88;5403532;32;35017;-72
2023/06/25 13:31:42;;;;;;;;;;;;;;;28.86;34.21;100364.47;5403538;32;35317;-73
2023/06/25 13:34:44;;;;;;;;;;;;;;;28.09;35.15;100362.63;5407379;32;34108;-79
2023/06/25 13:37:46;;;;;;;;;;;;;;;29.74;33.18;100348.72;5378221;32;34707;-72
2023/06/25 13:40:48;;;;;;;;;;;;;;;29.13;33.49;100349.59;5399655;32;34634;-72
2023/06/25 13:43:51;;;;;;;;;;;;;;;29.14;33.55;100345.00;5399634;32;34919;-79
2023/06/25 13:46:53;;;;;;;;;;;;;;;28.28;34.81;100338.72;5404417;32;34839;-79
2023/06/25 13:49:55;;;;;;;;;;;;;;;28.80;34.15;100337.28;5390992;32;34948;-72
2023/06/25 13:52:57;;;;;;;;;;;;;;;29.18;32.98;100334.69;5388854;32;35300;-80
2023/06/25 13:55:59;;;;;;;;;;;;;;;28.44;34.48;100329.72;5407255;32;34884;-72
2023/06/25 13:59:01;;;;;;;;;;;;;;;28.99;33.96;100328.72;5398384;32;34868;-78
2023/06/25 14:02:04;;;;;;;;;;;;;;;29.28;33.18;100327.12;5406417;32;34681;-72
2023/06/25 14:05:06;;;;;;;;;;;;;;;29.38;33.08;100319.63;5399542;32;35396;-72
2023/06/25 14:08:08;;;;;;;;;;;;;;;29.53;33.24;100325.91;5390785;32;34844;-72
2023/06/25 14:11:10;;;;;;;;;;;;;;;28.93;33.94;100321.34;5404163;32;34155;-79
2023/06/25 14:14:12;;;;;;;;;;;;;;;29.60;32.53;100317.88;5398663;32;34990;-72
2023/06/25 14:17:14;;;;;;;;;;;;;;;29.59;32.63;100317.06;5410200;32;34957;-79
2023/06/25 14:20:16;;;;;;;;;;;;;;;30.07;31.60;100314.81;5403467;32;34839;-72
2023/06/25 14:23:19;;;;;;;;;;;;;;;29.74;32.84;100318.94;5406942;32;35568;-71
2023/06/25 14:26:21;;;;;;;;;;;;;;;29.26;33.38;100304.84;5375492;32;36476;-78
2023/06/25 14:29:23;;;;;;;;;;;;;;;28.73;33.66;100309.28;5402185;32;35604;-80
2023/06/25 14:32:25;;;;;;;;;;;;;;;28.81;34.91;100306.53;5404316;32;34822;-72
2023/06/25 14:35:29;;;;;;;;;;;;;;;29.57;33.88;100302.88;5402629;32;34690;-79
2023/06/25 14:38:32;;;;;;;;;;;;;;;29.80;33.13;100296.50;5403930;32;34396;-71
2023/06/25 14:41:34;;;;;;;;;;;;;;;29.10;34.43;100300.38;5387155;32;34730;-72
2023/06/25 14:44:36;;;;;;;;;;;;;;;29.83;33.31;100304.28;5403633;32;34843;-73
2023/06/25 14:47:38;;;;;;;;;;;;;;;30.10;32.28;100297.38;5401621;32;35161;-72
2023/06/25 14:50:40;;;;;;;;;;;;;;;30.15;32.59;100284.94;5403369;32;35368;-78
2023/06/25 14:53:41;;;;;;;;;;;;;;;30.11;32.70;100297.19;5404896;32;35785;-73
2023/06/25 14:56:44;;;;;;;;;;;;;;;29.77;33.41;100299.62;5403241;32;34837;-71
2023/06/25 14:59:45;;;;;;;;;;;;;;;29.48;34.12;100287.69;5406711;32;34601;-78
2023/06/25 15:02:48;;;;;;;;;;;;;;;29.73;32.98;100290.16;5386536;32;34771;-72
2023/06/25 15:05:50;;;;;;;;;;;;;;;28.82;34.57;100290.09;5406725;32;34266;-72
2023/06/25 15:09:08;;;;;;;;;;;;;;;28.91;33.03;100292.75;5383103;32;35067;-72
2023/06/25 15:12:12;;;;;;;;;;;;;;;29.51;32.13;100295.47;5375439;32;34578;-72
2023/06/25 15:15:14;;;;;;;;;;;;;;;29.64;32.17;100286.72;5392211;32;34663;-74
2023/06/25 15:18:16;;;;;;;;;;;;;;;29.54;31.71;100275.31;5401285;32;34975;-80
2023/06/25 15:21:19;;;;;;;;;;;;;;;28.75;33.12;100270.22;5401752;32;35424;-79
2023/06/25 15:24:21;;;;;;;;;;;;;;;28.92;32.99;100275.50;5376068;32;869397;-72
2023/06/25 15:27:23;;;;;;;;;;;;;;;29.52;31.78;100266.53;5379891;32;34887;-80
2023/06/25 15:30:24;;;;;;;;;;;;;;;29.44;32.24;100269.31;5406118;32;34359;-81
2023/06/25 15:33:26;;;;;;;;;;;;;;;29.59;31.09;100268.31;5403791;32;35477;-78
2023/06/25 15:36:28;;;;;;;;;;;;;;;29.44;32.63;100262.03;5396030;32;35409;-73